sensor_id;sensor_type;location;lat;lon;timestamp;P1;durP1;ratioP1;P2;durP2;ratioP2
10701;SDS011;5402;50.004;8.246;2023-03-13T00:01:26;11.77;;;2.73;;
10701;SDS011;5402;50.004;8.246;2023-03-13T00:03:55;8.13;;;2.20;;
10701;SDS011;5402;50.004;8.246;2023-03-13T00:06:23;8.23;;;2.47;;
10701;SDS011;5402;50.004;8.246;2023-03-13T00:08:52;8.33;;;2.50;;
10701;SDS011;5402;50.004;8.246;2023-03-13T00:11:25;8.93;;;2.67;;
10701;SDS011;5402;50.004;8.246;2023-03-13T00:13:52;11.13;;;2.63;;
10701;SDS011;5402;50.004;8.246;2023-03-13T00:16:20;10.00;;;2.40;;
10701;SDS011;5402;50.004;8.246;2023-03-13T00:18:47;9.27;;;2.27;;
10701;SDS011;5402;50.004;8.246;2023-03-13T00:21:16;9.77;;;2.37;;
10701;SDS011;5402;50.004;8.246;2023-03-13T00:23:46;8.87;;;2.37;;
10701;SDS011;5402;50.004;8.246;2023-03-13T00:26:13;6.63;;;2.00;;
10701;SDS011;5402;50.004;8.246;2023-03-13T00:28:41;8.23;;;2.60;;
10701;SDS011;5402;50.004;8.246;2023-03-13T00:31:09;9.43;;;2.60;;
10701;SDS011;5402;50.004;8.246;2023-03-13T00:33:38;11.33;;;2.97;;
10701;SDS011;5402;50.004;8.246;2023-03-13T00:36:07;9.40;;;2.50;;
10701;SDS011;5402;50.004;8.246;2023-03-13T00:38:35;10.73;;;2.50;;
10701;SDS011;5402;50.004;8.246;2023-03-13T00:41:04;6.83;;;2.40;;
10701;SDS011;5402;50.004;8.246;2023-03-13T00:43:32;8.03;;;2.83;;
10701;SDS011;5402;50.004;8.246;2023-03-13T00:46:00;11.13;;;2.20;;
10701;SDS011;5402;50.004;8.246;2023-03-13T00:48:27;9.57;;;2.53;;
10701;SDS011;5402;50.004;8.246;2023-03-13T00:50:54;7.37;;;2.37;;
10701;SDS011;5402;50.004;8.246;2023-03-13T00:53:21;9.10;;;2.77;;
10701;SDS011;5402;50.004;8.246;2023-03-13T00:55:54;7.83;;;2.57;;
10701;SDS011;5402;50.004;8.246;2023-03-13T00:58:24;8.13;;;2.67;;
10701;SDS011;5402;50.004;8.246;2023-03-13T01:00:52;9.67;;;2.33;;
10701;SDS011;5402;50.004;8.246;2023-03-13T01:03:20;15.63;;;2.43;;
10701;SDS011;5402;50.004;8.246;2023-03-13T01:05:54;7.03;;;2.73;;
10701;SDS011;5402;50.004;8.246;2023-03-13T01:08:21;8.87;;;2.57;;
10701;SDS011;5402;50.004;8.246;2023-03-13T01:10:48;5.10;;;2.43;;
10701;SDS011;5402;50.004;8.246;2023-03-13T01:13:14;9.37;;;2.87;;
10701;SDS011;5402;50.004;8.246;2023-03-13T01:15:42;8.23;;;2.40;;
10701;SDS011;5402;50.004;8.246;2023-03-13T01:18:09;7.87;;;2.27;;
10701;SDS011;5402;50.004;8.246;2023-03-13T01:20:39;7.67;;;2.40;;
10701;SDS011;5402;50.004;8.246;2023-03-13T01:23:06;8.70;;;2.20;;
10701;SDS011;5402;50.004;8.246;2023-03-13T01:25:34;6.43;;;2.20;;
10701;SDS011;5402;50.004;8.246;2023-03-13T01:28:02;7.93;;;2.40;;
10701;SDS011;5402;50.004;8.246;2023-03-13T01:30:28;11.23;;;2.60;;
10701;SDS011;5402;50.004;8.246;2023-03-13T01:32:57;8.73;;;2.37;;
10701;SDS011;5402;50.004;8.246;2023-03-13T01:35:23;5.37;;;2.43;;
10701;SDS011;5402;50.004;8.246;2023-03-13T01:37:50;11.20;;;2.43;;
10701;SDS011;5402;50.004;8.246;2023-03-13T01:40:17;8.97;;;2.33;;
10701;SDS011;5402;50.004;8.246;2023-03-13T01:42:50;9.03;;;2.67;;
10701;SDS011;5402;50.004;8.246;2023-03-13T01:48:23;8.60;;;2.20;;
10701;SDS011;5402;50.004;8.246;2023-03-13T01:50:57;10.47;;;2.60;;
10701;SDS011;5402;50.004;8.246;2023-03-13T01:53:26;13.33;;;2.50;;
10701;SDS011;5402;50.004;8.246;2023-03-13T01:55:56;7.13;;;2.57;;
10701;SDS011;5402;50.004;8.246;2023-03-13T01:58:24;7.13;;;2.40;;
10701;SDS011;5402;50.004;8.246;2023-03-13T02:00:54;5.40;;;2.17;;
10701;SDS011;5402;50.004;8.246;2023-03-13T02:03:21;12.37;;;2.70;;
10701;SDS011;5402;50.004;8.246;2023-03-13T02:05:49;7.83;;;1.97;;
10701;SDS011;5402;50.004;8.246;2023-03-13T02:08:17;4.60;;;2.00;;
10701;SDS011;5402;50.004;8.246;2023-03-13T02:10:47;8.50;;;2.17;;
10701;SDS011;5402;50.004;8.246;2023-03-13T02:13:16;6.67;;;2.23;;
10701;SDS011;5402;50.004;8.246;2023-03-13T02:15:44;8.97;;;2.27;;
10701;SDS011;5402;50.004;8.246;2023-03-13T02:18:12;7.00;;;2.13;;
10701;SDS011;5402;50.004;8.246;2023-03-13T02:20:40;5.90;;;1.80;;
10701;SDS011;5402;50.004;8.246;2023-03-13T02:23:09;7.67;;;2.03;;
10701;SDS011;5402;50.004;8.246;2023-03-13T02:25:45;4.60;;;1.77;;
10701;SDS011;5402;50.004;8.246;2023-03-13T02:28:14;7.23;;;2.50;;
10701;SDS011;5402;50.004;8.246;2023-03-13T02:30:43;8.40;;;2.20;;
10701;SDS011;5402;50.004;8.246;2023-03-13T02:33:12;8.57;;;1.77;;
10701;SDS011;5402;50.004;8.246;2023-03-13T02:35:40;8.87;;;2.00;;
10701;SDS011;5402;50.004;8.246;2023-03-13T02:38:08;6.43;;;1.70;;
10701;SDS011;5402;50.004;8.246;2023-03-13T02:40:39;5.77;;;1.83;;
10701;SDS011;5402;50.004;8.246;2023-03-13T02:43:10;7.00;;;1.80;;
10701;SDS011;5402;50.004;8.246;2023-03-13T02:45:40;5.40;;;2.07;;
10701;SDS011;5402;50.004;8.246;2023-03-13T02:48:07;5.83;;;1.87;;
10701;SDS011;5402;50.004;8.246;2023-03-13T02:50:34;7.77;;;1.83;;
10701;SDS011;5402;50.004;8.246;2023-03-13T02:53:02;5.30;;;1.70;;
10701;SDS011;5402;50.004;8.246;2023-03-13T02:55:34;7.73;;;1.90;;
10701;SDS011;5402;50.004;8.246;2023-03-13T02:58:04;5.03;;;1.90;;
10701;SDS011;5402;50.004;8.246;2023-03-13T03:00:32;4.37;;;1.80;;
10701;SDS011;5402;50.004;8.246;2023-03-13T03:02:59;2.63;;;1.40;;
10701;SDS011;5402;50.004;8.246;2023-03-13T03:05:26;5.53;;;1.53;;
10701;SDS011;5402;50.004;8.246;2023-03-13T03:07:53;4.33;;;1.50;;
10701;SDS011;5402;50.004;8.246;2023-03-13T03:10:19;4.53;;;1.50;;
10701;SDS011;5402;50.004;8.246;2023-03-13T03:12:46;5.10;;;1.43;;
10701;SDS011;5402;50.004;8.246;2023-03-13T03:15:13;2.70;;;1.30;;
10701;SDS011;5402;50.004;8.246;2023-03-13T03:17:41;3.97;;;1.60;;
10701;SDS011;5402;50.004;8.246;2023-03-13T03:20:08;3.83;;;1.37;;
10701;SDS011;5402;50.004;8.246;2023-03-13T03:22:36;5.00;;;1.77;;
10701;SDS011;5402;50.004;8.246;2023-03-13T03:25:05;2.80;;;1.30;;
10701;SDS011;5402;50.004;8.246;2023-03-13T03:27:33;4.37;;;1.60;;
10701;SDS011;5402;50.004;8.246;2023-03-13T03:30:00;2.97;;;1.30;;
10701;SDS011;5402;50.004;8.246;2023-03-13T03:32:27;4.57;;;1.20;;
10701;SDS011;5402;50.004;8.246;2023-03-13T03:34:55;3.20;;;1.40;;
10701;SDS011;5402;50.004;8.246;2023-03-13T03:37:21;3.33;;;1.23;;
10701;SDS011;5402;50.004;8.246;2023-03-13T03:39:48;3.90;;;1.37;;
10701;SDS011;5402;50.004;8.246;2023-03-13T03:42:15;4.33;;;1.50;;
10701;SDS011;5402;50.004;8.246;2023-03-13T03:44:42;2.47;;;1.63;;
10701;SDS011;5402;50.004;8.246;2023-03-13T03:47:08;2.00;;;1.50;;
10701;SDS011;5402;50.004;8.246;2023-03-13T03:49:35;3.00;;;1.07;;
10701;SDS011;5402;50.004;8.246;2023-03-13T03:52:03;5.03;;;1.30;;
10701;SDS011;5402;50.004;8.246;2023-03-13T03:54:30;2.93;;;1.10;;
10701;SDS011;5402;50.004;8.246;2023-03-13T03:56:57;3.80;;;1.50;;
10701;SDS011;5402;50.004;8.246;2023-03-13T03:59:25;3.13;;;1.20;;
10701;SDS011;5402;50.004;8.246;2023-03-13T04:01:51;1.40;;;0.77;;
10701;SDS011;5402;50.004;8.246;2023-03-13T04:04:18;1.23;;;1.00;;
10701;SDS011;5402;50.004;8.246;2023-03-13T04:06:45;1.47;;;1.07;;
10701;SDS011;5402;50.004;8.246;2023-03-13T04:09:13;2.50;;;1.10;;
10701;SDS011;5402;50.004;8.246;2023-03-13T04:11:40;2.53;;;1.00;;
10701;SDS011;5402;50.004;8.246;2023-03-13T04:14:06;2.07;;;1.00;;
10701;SDS011;5402;50.004;8.246;2023-03-13T04:16:33;1.40;;;1.00;;
10701;SDS011;5402;50.004;8.246;2023-03-13T04:19:00;1.60;;;1.00;;
10701;SDS011;5402;50.004;8.246;2023-03-13T04:21:26;1.63;;;1.00;;
10701;SDS011;5402;50.004;8.246;2023-03-13T04:23:53;1.30;;;0.87;;
10701;SDS011;5402;50.004;8.246;2023-03-13T04:26:21;3.67;;;0.90;;
10701;SDS011;5402;50.004;8.246;2023-03-13T04:28:48;1.90;;;1.10;;
10701;SDS011;5402;50.004;8.246;2023-03-13T04:31:14;1.83;;;0.80;;
10701;SDS011;5402;50.004;8.246;2023-03-13T04:33:41;3.03;;;0.83;;
10701;SDS011;5402;50.004;8.246;2023-03-13T04:36:09;0.83;;;0.73;;
10701;SDS011;5402;50.004;8.246;2023-03-13T04:38:36;1.27;;;0.70;;
10701;SDS011;5402;50.004;8.246;2023-03-13T04:41:02;1.80;;;0.83;;
10701;SDS011;5402;50.004;8.246;2023-03-13T04:43:31;0.77;;;0.77;;
10701;SDS011;5402;50.004;8.246;2023-03-13T04:45:58;0.80;;;0.80;;
10701;SDS011;5402;50.004;8.246;2023-03-13T04:48:25;2.20;;;0.80;;
10701;SDS011;5402;50.004;8.246;2023-03-13T04:50:51;1.10;;;0.90;;
10701;SDS011;5402;50.004;8.246;2023-03-13T04:53:18;1.83;;;0.90;;
10701;SDS011;5402;50.004;8.246;2023-03-13T04:55:45;1.90;;;0.97;;
10701;SDS011;5402;50.004;8.246;2023-03-13T04:58:13;1.13;;;0.80;;
10701;SDS011;5402;50.004;8.246;2023-03-13T05:00:41;1.13;;;0.90;;
10701;SDS011;5402;50.004;8.246;2023-03-13T05:03:08;0.83;;;0.73;;
10701;SDS011;5402;50.004;8.246;2023-03-13T05:05:35;3.40;;;1.10;;
10701;SDS011;5402;50.004;8.246;2023-03-13T05:08:01;1.97;;;1.20;;
10701;SDS011;5402;50.004;8.246;2023-03-13T05:10:29;1.33;;;1.00;;
10701;SDS011;5402;50.004;8.246;2023-03-13T05:12:55;1.37;;;1.00;;
10701;SDS011;5402;50.004;8.246;2023-03-13T05:15:22;1.10;;;1.00;;
10701;SDS011;5402;50.004;8.246;2023-03-13T05:17:50;1.50;;;0.97;;
10701;SDS011;5402;50.004;8.246;2023-03-13T05:20:18;1.93;;;1.30;;
10701;SDS011;5402;50.004;8.246;2023-03-13T05:22:45;1.63;;;1.30;;
10701;SDS011;5402;50.004;8.246;2023-03-13T05:25:12;1.90;;;1.50;;
10701;SDS011;5402;50.004;8.246;2023-03-13T05:27:38;2.43;;;1.23;;
10701;SDS011;5402;50.004;8.246;2023-03-13T05:30:06;1.37;;;1.27;;
10701;SDS011;5402;50.004;8.246;2023-03-13T05:32:33;3.37;;;1.73;;
10701;SDS011;5402;50.004;8.246;2023-03-13T05:35:01;2.60;;;1.60;;
10701;SDS011;5402;50.004;8.246;2023-03-13T05:37:28;2.03;;;1.37;;
10701;SDS011;5402;50.004;8.246;2023-03-13T05:39:55;3.50;;;1.60;;
10701;SDS011;5402;50.004;8.246;2023-03-13T05:42:21;2.73;;;1.50;;
10701;SDS011;5402;50.004;8.246;2023-03-13T05:44:49;1.90;;;1.80;;
10701;SDS011;5402;50.004;8.246;2023-03-13T05:47:15;3.50;;;1.90;;
10701;SDS011;5402;50.004;8.246;2023-03-13T05:49:42;1.70;;;1.60;;
10701;SDS011;5402;50.004;8.246;2023-03-13T05:52:10;2.33;;;1.87;;
10701;SDS011;5402;50.004;8.246;2023-03-13T05:54:37;3.50;;;1.70;;
10701;SDS011;5402;50.004;8.246;2023-03-13T05:57:04;2.80;;;1.83;;
10701;SDS011;5402;50.004;8.246;2023-03-13T05:59:30;2.70;;;2.50;;
10701;SDS011;5402;50.004;8.246;2023-03-13T06:01:57;3.03;;;1.83;;
10701;SDS011;5402;50.004;8.246;2023-03-13T06:04:24;2.43;;;2.10;;
10701;SDS011;5402;50.004;8.246;2023-03-13T06:06:51;5.27;;;2.30;;
10701;SDS011;5402;50.004;8.246;2023-03-13T06:09:19;2.30;;;2.10;;
10701;SDS011;5402;50.004;8.246;2023-03-13T06:11:46;2.20;;;2.00;;
10701;SDS011;5402;50.004;8.246;2023-03-13T06:14:13;3.20;;;2.43;;
10701;SDS011;5402;50.004;8.246;2023-03-13T06:16:40;3.30;;;2.50;;
10701;SDS011;5402;50.004;8.246;2023-03-13T06:19:06;2.57;;;2.37;;
10701;SDS011;5402;50.004;8.246;2023-03-13T06:21:33;2.40;;;2.20;;
10701;SDS011;5402;50.004;8.246;2023-03-13T06:24:00;2.80;;;2.60;;
10701;SDS011;5402;50.004;8.246;2023-03-13T06:26:28;3.57;;;3.03;;
10701;SDS011;5402;50.004;8.246;2023-03-13T06:28:55;4.87;;;3.37;;
10701;SDS011;5402;50.004;8.246;2023-03-13T06:31:21;4.13;;;3.07;;
10701;SDS011;5402;50.004;8.246;2023-03-13T06:33:51;4.00;;;3.27;;
10701;SDS011;5402;50.004;8.246;2023-03-13T06:36:18;4.93;;;3.57;;
10701;SDS011;5402;50.004;8.246;2023-03-13T06:38:45;3.80;;;3.03;;
10701;SDS011;5402;50.004;8.246;2023-03-13T06:41:12;3.93;;;3.57;;
10701;SDS011;5402;50.004;8.246;2023-03-13T06:43:40;4.20;;;3.60;;
10701;SDS011;5402;50.004;8.246;2023-03-13T06:46:07;4.20;;;3.23;;
10701;SDS011;5402;50.004;8.246;2023-03-13T06:48:41;4.30;;;3.20;;
10701;SDS011;5402;50.004;8.246;2023-03-13T06:51:09;3.67;;;3.27;;
10701;SDS011;5402;50.004;8.246;2023-03-13T06:53:36;3.30;;;3.00;;
10701;SDS011;5402;50.004;8.246;2023-03-13T06:56:03;3.30;;;3.00;;
10701;SDS011;5402;50.004;8.246;2023-03-13T06:58:30;3.30;;;3.00;;
10701;SDS011;5402;50.004;8.246;2023-03-13T07:00:58;2.90;;;2.70;;
10701;SDS011;5402;50.004;8.246;2023-03-13T07:03:30;4.73;;;4.07;;
10701;SDS011;5402;50.004;8.246;2023-03-13T07:05:58;4.77;;;2.60;;
10701;SDS011;5402;50.004;8.246;2023-03-13T07:08:25;2.63;;;2.43;;
10701;SDS011;5402;50.004;8.246;2023-03-13T07:10:53;3.90;;;2.27;;
10701;SDS011;5402;50.004;8.246;2023-03-13T07:13:24;2.63;;;2.43;;
10701;SDS011;5402;50.004;8.246;2023-03-13T07:15:51;3.00;;;2.23;;
10701;SDS011;5402;50.004;8.246;2023-03-13T07:18:20;2.53;;;2.33;;
10701;SDS011;5402;50.004;8.246;2023-03-13T07:20:51;3.97;;;2.33;;
10701;SDS011;5402;50.004;8.246;2023-03-13T07:23:19;2.67;;;1.97;;
10701;SDS011;5402;50.004;8.246;2023-03-13T07:25:51;1.80;;;1.70;;
10701;SDS011;5402;50.004;8.246;2023-03-13T07:28:18;2.33;;;2.13;;
10701;SDS011;5402;50.004;8.246;2023-03-13T07:30:45;6.70;;;2.57;;
10701;SDS011;5402;50.004;8.246;2023-03-13T07:33:12;3.37;;;2.17;;
10701;SDS011;5402;50.004;8.246;2023-03-13T07:35:40;2.40;;;2.00;;
10701;SDS011;5402;50.004;8.246;2023-03-13T07:38:12;1.83;;;1.73;;
10701;SDS011;5402;50.004;8.246;2023-03-13T07:40:39;2.13;;;1.70;;
10701;SDS011;5402;50.004;8.246;2023-03-13T07:43:05;1.93;;;1.73;;
10701;SDS011;5402;50.004;8.246;2023-03-13T07:45:32;2.00;;;1.80;;
10701;SDS011;5402;50.004;8.246;2023-03-13T07:47:59;3.10;;;1.80;;
10701;SDS011;5402;50.004;8.246;2023-03-13T07:50:25;2.13;;;1.73;;
10701;SDS011;5402;50.004;8.246;2023-03-13T07:52:53;2.93;;;1.70;;
10701;SDS011;5402;50.004;8.246;2023-03-13T07:55:20;1.93;;;1.73;;
10701;SDS011;5402;50.004;8.246;2023-03-13T07:57:47;4.30;;;1.77;;
10701;SDS011;5402;50.004;8.246;2023-03-13T08:00:14;1.70;;;1.60;;
10701;SDS011;5402;50.004;8.246;2023-03-13T08:02:42;1.83;;;1.70;;
10701;SDS011;5402;50.004;8.246;2023-03-13T08:05:09;3.00;;;1.70;;
10701;SDS011;5402;50.004;8.246;2023-03-13T08:07:35;2.30;;;1.80;;
10701;SDS011;5402;50.004;8.246;2023-03-13T08:10:04;2.30;;;1.73;;
10701;SDS011;5402;50.004;8.246;2023-03-13T08:12:32;2.73;;;2.33;;
10701;SDS011;5402;50.004;8.246;2023-03-13T08:14:59;2.80;;;1.90;;
10701;SDS011;5402;50.004;8.246;2023-03-13T08:17:27;3.90;;;1.87;;
10701;SDS011;5402;50.004;8.246;2023-03-13T08:19:54;3.00;;;2.00;;
10701;SDS011;5402;50.004;8.246;2023-03-13T08:22:21;1.77;;;1.67;;
10701;SDS011;5402;50.004;8.246;2023-03-13T08:24:48;3.30;;;1.90;;
10701;SDS011;5402;50.004;8.246;2023-03-13T08:27:16;2.30;;;2.10;;
10701;SDS011;5402;50.004;8.246;2023-03-13T08:29:42;2.47;;;2.00;;
10701;SDS011;5402;50.004;8.246;2023-03-13T08:32:09;2.47;;;1.90;;
10701;SDS011;5402;50.004;8.246;2023-03-13T08:34:37;2.17;;;1.93;;
10701;SDS011;5402;50.004;8.246;2023-03-13T08:37:03;3.23;;;2.30;;
10701;SDS011;5402;50.004;8.246;2023-03-13T08:39:30;2.20;;;2.00;;
10701;SDS011;5402;50.004;8.246;2023-03-13T08:41:57;3.90;;;2.20;;
10701;SDS011;5402;50.004;8.246;2023-03-13T08:44:25;3.00;;;2.27;;
10701;SDS011;5402;50.004;8.246;2023-03-13T08:46:52;2.53;;;1.77;;
10701;SDS011;5402;50.004;8.246;2023-03-13T08:49:18;3.03;;;2.20;;
10701;SDS011;5402;50.004;8.246;2023-03-13T08:51:45;3.23;;;2.27;;
10701;SDS011;5402;50.004;8.246;2023-03-13T08:54:12;2.40;;;1.80;;
10701;SDS011;5402;50.004;8.246;2023-03-13T08:56:39;2.83;;;1.93;;
10701;SDS011;5402;50.004;8.246;2023-03-13T08:59:07;2.13;;;1.93;;
10701;SDS011;5402;50.004;8.246;2023-03-13T09:01:36;3.20;;;1.97;;
10701;SDS011;5402;50.004;8.246;2023-03-13T09:04:04;3.57;;;2.10;;
10701;SDS011;5402;50.004;8.246;2023-03-13T09:06:31;3.77;;;1.73;;
10701;SDS011;5402;50.004;8.246;2023-03-13T09:08:58;3.33;;;2.37;;
10701;SDS011;5402;50.004;8.246;2023-03-13T09:11:26;3.03;;;2.27;;
10701;SDS011;5402;50.004;8.246;2023-03-13T09:13:54;3.03;;;2.47;;
10701;SDS011;5402;50.004;8.246;2023-03-13T09:16:23;3.43;;;2.63;;
10701;SDS011;5402;50.004;8.246;2023-03-13T09:18:52;2.77;;;2.47;;
10701;SDS011;5402;50.004;8.246;2023-03-13T09:21:19;3.77;;;2.80;;
10701;SDS011;5402;50.004;8.246;2023-03-13T09:23:48;2.60;;;2.33;;
10701;SDS011;5402;50.004;8.246;2023-03-13T09:26:15;2.83;;;2.53;;
10701;SDS011;5402;50.004;8.246;2023-03-13T09:28:42;2.80;;;2.47;;
10701;SDS011;5402;50.004;8.246;2023-03-13T09:31:10;3.10;;;2.53;;
10701;SDS011;5402;50.004;8.246;2023-03-13T09:33:39;3.70;;;2.50;;
10701;SDS011;5402;50.004;8.246;2023-03-13T09:36:07;2.83;;;2.53;;
10701;SDS011;5402;50.004;8.246;2023-03-13T09:38:35;3.17;;;2.73;;
10701;SDS011;5402;50.004;8.246;2023-03-13T09:41:04;3.27;;;2.70;;
10701;SDS011;5402;50.004;8.246;2023-03-13T09:43:46;2.77;;;2.33;;
10701;SDS011;5402;50.004;8.246;2023-03-13T09:46:15;4.30;;;2.47;;
10701;SDS011;5402;50.004;8.246;2023-03-13T09:48:47;3.07;;;2.77;;
10701;SDS011;5402;50.004;8.246;2023-03-13T09:51:22;4.30;;;2.60;;
10701;SDS011;5402;50.004;8.246;2023-03-13T09:53:54;3.70;;;2.67;;
10701;SDS011;5402;50.004;8.246;2023-03-13T09:56:26;4.10;;;3.00;;
10701;SDS011;5402;50.004;8.246;2023-03-13T09:58:57;3.20;;;2.90;;
10701;SDS011;5402;50.004;8.246;2023-03-13T10:01:27;4.37;;;3.40;;
10701;SDS011;5402;50.004;8.246;2023-03-13T10:04:01;4.20;;;3.23;;
10701;SDS011;5402;50.004;8.246;2023-03-13T10:06:35;3.30;;;2.80;;
10701;SDS011;5402;50.004;8.246;2023-03-13T10:09:11;4.87;;;3.43;;
10701;SDS011;5402;50.004;8.246;2023-03-13T10:11:46;4.53;;;3.03;;
10701;SDS011;5402;50.004;8.246;2023-03-13T10:14:21;3.47;;;3.13;;
10701;SDS011;5402;50.004;8.246;2023-03-13T10:16:58;4.77;;;3.43;;
10701;SDS011;5402;50.004;8.246;2023-03-13T10:19:31;5.03;;;3.50;;
10701;SDS011;5402;50.004;8.246;2023-03-13T10:22:07;3.43;;;3.13;;
10701;SDS011;5402;50.004;8.246;2023-03-13T10:24:41;3.53;;;3.23;;
10701;SDS011;5402;50.004;8.246;2023-03-13T10:27:13;4.00;;;3.03;;
10701;SDS011;5402;50.004;8.246;2023-03-13T10:29:41;3.03;;;2.73;;
10701;SDS011;5402;50.004;8.246;2023-03-13T10:32:09;3.97;;;2.90;;
10701;SDS011;5402;50.004;8.246;2023-03-13T10:34:48;2.93;;;2.73;;
10701;SDS011;5402;50.004;8.246;2023-03-13T10:37:20;3.70;;;2.63;;
10701;SDS011;5402;50.004;8.246;2023-03-13T10:39:49;2.40;;;2.20;;
10701;SDS011;5402;50.004;8.246;2023-03-13T10:42:23;3.57;;;2.67;;
10701;SDS011;5402;50.004;8.246;2023-03-13T10:44:54;2.73;;;2.53;;
10701;SDS011;5402;50.004;8.246;2023-03-13T10:47:23;3.30;;;3.00;;
10701;SDS011;5402;50.004;8.246;2023-03-13T10:49:51;3.47;;;2.70;;
10701;SDS011;5402;50.004;8.246;2023-03-13T10:52:33;4.00;;;3.20;;
10701;SDS011;5402;50.004;8.246;2023-03-13T10:55:09;3.00;;;2.60;;
10701;SDS011;5402;50.004;8.246;2023-03-13T10:57:37;5.60;;;3.00;;
10701;SDS011;5402;50.004;8.246;2023-03-13T11:02:53;4.33;;;2.90;;
10701;SDS011;5402;50.004;8.246;2023-03-13T11:05:31;3.63;;;2.40;;
10701;SDS011;5402;50.004;8.246;2023-03-13T11:08:17;6.30;;;2.77;;
10701;SDS011;5402;50.004;8.246;2023-03-13T11:10:56;3.33;;;2.43;;
10701;SDS011;5402;50.004;8.246;2023-03-13T11:13:32;2.90;;;2.37;;
10701;SDS011;5402;50.004;8.246;2023-03-13T11:16:03;5.07;;;2.43;;
10701;SDS011;5402;50.004;8.246;2023-03-13T11:18:39;3.30;;;2.00;;
10701;SDS011;5402;50.004;8.246;2023-03-13T11:21:16;3.50;;;2.40;;
10701;SDS011;5402;50.004;8.246;2023-03-13T11:23:51;2.93;;;2.07;;
10701;SDS011;5402;50.004;8.246;2023-03-13T11:26:27;3.33;;;2.30;;
10701;SDS011;5402;50.004;8.246;2023-03-13T11:29:01;2.53;;;2.10;;
10701;SDS011;5402;50.004;8.246;2023-03-13T11:31:34;3.63;;;2.50;;
10701;SDS011;5402;50.004;8.246;2023-03-13T11:34:07;2.20;;;2.00;;
10701;SDS011;5402;50.004;8.246;2023-03-13T11:36:42;2.53;;;2.10;;
10701;SDS011;5402;50.004;8.246;2023-03-13T11:39:23;6.47;;;3.00;;
10701;SDS011;5402;50.004;8.246;2023-03-13T11:42:14;3.00;;;2.30;;
10701;SDS011;5402;50.004;8.246;2023-03-13T11:44:56;3.13;;;2.00;;
10701;SDS011;5402;50.004;8.246;2023-03-13T11:47:32;3.00;;;2.07;;
10701;SDS011;5402;50.004;8.246;2023-03-13T11:50:17;3.40;;;2.33;;
10701;SDS011;5402;50.004;8.246;2023-03-13T11:53:03;2.67;;;1.83;;
10701;SDS011;5402;50.004;8.246;2023-03-13T11:58:40;3.50;;;1.80;;
10701;SDS011;5402;50.004;8.246;2023-03-13T12:01:22;3.37;;;2.00;;
10701;SDS011;5402;50.004;8.246;2023-03-13T12:03:54;2.87;;;2.10;;
10701;SDS011;5402;50.004;8.246;2023-03-13T12:06:24;2.50;;;1.73;;
10701;SDS011;5402;50.004;8.246;2023-03-13T12:08:57;4.83;;;2.27;;
10701;SDS011;5402;50.004;8.246;2023-03-13T12:11:31;3.27;;;2.03;;
10701;SDS011;5402;50.004;8.246;2023-03-13T12:14:08;2.03;;;1.80;;
10701;SDS011;5402;50.004;8.246;2023-03-13T12:16:40;3.90;;;1.83;;
10701;SDS011;5402;50.004;8.246;2023-03-13T12:19:11;4.00;;;1.83;;
10701;SDS011;5402;50.004;8.246;2023-03-13T12:21:42;2.63;;;1.57;;
10701;SDS011;5402;50.004;8.246;2023-03-13T12:24:17;2.10;;;1.90;;
10701;SDS011;5402;50.004;8.246;2023-03-13T12:26:50;1.80;;;1.67;;
10701;SDS011;5402;50.004;8.246;2023-03-13T12:29:25;3.40;;;1.80;;
10701;SDS011;5402;50.004;8.246;2023-03-13T12:32:01;4.17;;;1.93;;
10701;SDS011;5402;50.004;8.246;2023-03-13T12:34:34;1.87;;;1.70;;
10701;SDS011;5402;50.004;8.246;2023-03-13T12:37:09;4.00;;;1.80;;
10701;SDS011;5402;50.004;8.246;2023-03-13T12:39:44;3.13;;;1.70;;
10701;SDS011;5402;50.004;8.246;2023-03-13T12:42:20;3.30;;;1.90;;
10701;SDS011;5402;50.004;8.246;2023-03-13T12:44:55;4.33;;;2.10;;
10701;SDS011;5402;50.004;8.246;2023-03-13T12:47:24;1.80;;;1.70;;
10701;SDS011;5402;50.004;8.246;2023-03-13T12:50:01;2.30;;;1.70;;
10701;SDS011;5402;50.004;8.246;2023-03-13T12:52:55;5.70;;;2.03;;
10701;SDS011;5402;50.004;8.246;2023-03-13T12:58:47;2.30;;;1.80;;
10701;SDS011;5402;50.004;8.246;2023-03-13T13:01:20;4.73;;;2.03;;
10701;SDS011;5402;50.004;8.246;2023-03-13T13:03:55;3.20;;;2.10;;
10701;SDS011;5402;50.004;8.246;2023-03-13T13:06:24;4.07;;;2.70;;
10701;SDS011;5402;50.004;8.246;2023-03-13T13:09:05;2.67;;;1.90;;
10701;SDS011;5402;50.004;8.246;2023-03-13T13:20:31;2.43;;;2.03;;
10701;SDS011;5402;50.004;8.246;2023-03-13T13:35:24;4.03;;;2.63;;
10701;SDS011;5402;50.004;8.246;2023-03-13T13:40:57;6.07;;;3.50;;
10701;SDS011;5402;50.004;8.246;2023-03-13T13:43:27;4.93;;;3.23;;
10701;SDS011;5402;50.004;8.246;2023-03-13T13:45:59;6.10;;;3.43;;
10701;SDS011;5402;50.004;8.246;2023-03-13T13:48:33;5.93;;;3.60;;
10701;SDS011;5402;50.004;8.246;2023-03-13T13:53:59;4.80;;;3.40;;
10701;SDS011;5402;50.004;8.246;2023-03-13T13:56:31;7.77;;;3.60;;
10701;SDS011;5402;50.004;8.246;2023-03-13T13:59:15;4.97;;;2.90;;
10701;SDS011;5402;50.004;8.246;2023-03-13T14:02:23;4.57;;;3.20;;
10701;SDS011;5402;50.004;8.246;2023-03-13T14:04:58;4.30;;;3.27;;
10701;SDS011;5402;50.004;8.246;2023-03-13T14:07:29;5.90;;;3.00;;
10701;SDS011;5402;50.004;8.246;2023-03-13T14:10:05;4.07;;;3.20;;
10701;SDS011;5402;50.004;8.246;2023-03-13T14:12:44;4.03;;;2.80;;
10701;SDS011;5402;50.004;8.246;2023-03-13T14:15:16;5.40;;;3.20;;
10701;SDS011;5402;50.004;8.246;2023-03-13T14:17:45;4.20;;;2.60;;
10701;SDS011;5402;50.004;8.246;2023-03-13T14:20:19;16.97;;;9.13;;
10701;SDS011;5402;50.004;8.246;2023-03-13T14:22:50;6.03;;;3.47;;
10701;SDS011;5402;50.004;8.246;2023-03-13T14:25:18;7.03;;;2.90;;
10701;SDS011;5402;50.004;8.246;2023-03-13T14:27:46;3.40;;;3.00;;
10701;SDS011;5402;50.004;8.246;2023-03-13T14:30:14;5.43;;;3.00;;
10701;SDS011;5402;50.004;8.246;2023-03-13T14:32:42;5.63;;;3.00;;
10701;SDS011;5402;50.004;8.246;2023-03-13T14:35:12;4.30;;;3.10;;
10701;SDS011;5402;50.004;8.246;2023-03-13T14:37:42;6.67;;;3.50;;
10701;SDS011;5402;50.004;8.246;2023-03-13T14:40:18;3.30;;;3.00;;
10701;SDS011;5402;50.004;8.246;2023-03-13T14:42:49;6.93;;;3.30;;
10701;SDS011;5402;50.004;8.246;2023-03-13T14:45:20;5.53;;;3.10;;
10701;SDS011;5402;50.004;8.246;2023-03-13T14:47:50;6.63;;;3.33;;
10701;SDS011;5402;50.004;8.246;2023-03-13T14:50:17;7.33;;;3.27;;
10701;SDS011;5402;50.004;8.246;2023-03-13T14:52:49;5.27;;;3.13;;
10701;SDS011;5402;50.004;8.246;2023-03-13T14:55:26;10.00;;;5.33;;
10701;SDS011;5402;50.004;8.246;2023-03-13T14:57:57;4.37;;;2.90;;
10701;SDS011;5402;50.004;8.246;2023-03-13T15:00:35;2.07;;;1.87;;
10701;SDS011;5402;50.004;8.246;2023-03-13T15:03:18;3.43;;;1.97;;
10701;SDS011;5402;50.004;8.246;2023-03-13T15:05:47;1.77;;;1.50;;
10701;SDS011;5402;50.004;8.246;2023-03-13T15:08:17;2.03;;;1.33;;
10701;SDS011;5402;50.004;8.246;2023-03-13T15:10:45;3.50;;;1.60;;
10701;SDS011;5402;50.004;8.246;2023-03-13T15:13:14;4.40;;;1.40;;
10701;SDS011;5402;50.004;8.246;2023-03-13T15:15:42;0.00;;;0.00;;
10701;SDS011;5402;50.004;8.246;2023-03-13T15:18:12;0.00;;;0.00;;
10701;SDS011;5402;50.004;8.246;2023-03-13T15:20:43;0.00;;;0.00;;
10701;SDS011;5402;50.004;8.246;2023-03-13T15:23:14;0.00;;;0.00;;
10701;SDS011;5402;50.004;8.246;2023-03-13T15:25:43;0.00;;;0.00;;
10701;SDS011;5402;50.004;8.246;2023-03-13T15:28:12;0.00;;;0.00;;
10701;SDS011;5402;50.004;8.246;2023-03-13T15:30:41;0.00;;;0.00;;
10701;SDS011;5402;50.004;8.246;2023-03-13T15:33:11;0.00;;;0.00;;
10701;SDS011;5402;50.004;8.246;2023-03-13T15:35:39;0.00;;;0.00;;
10701;SDS011;5402;50.004;8.246;2023-03-13T15:38:09;0.00;;;0.00;;
10701;SDS011;5402;50.004;8.246;2023-03-13T15:40:39;0.00;;;0.00;;
10701;SDS011;5402;50.004;8.246;2023-03-13T15:43:06;0.00;;;0.00;;
10701;SDS011;5402;50.004;8.246;2023-03-13T15:45:33;0.00;;;0.00;;
10701;SDS011;5402;50.004;8.246;2023-03-13T15:48:02;0.00;;;0.00;;
10701;SDS011;5402;50.004;8.246;2023-03-13T15:50:36;0.00;;;0.00;;
10701;SDS011;5402;50.004;8.246;2023-03-13T15:53:03;0.00;;;0.00;;
10701;SDS011;5402;50.004;8.246;2023-03-13T15:55:36;0.00;;;0.00;;